Council Bluffs, Iowa
Current Conditions -  °F | °C
As of 5:52 AM on Wednesday 28 Jan 2015 (Local Time) from KOMA Reporting Station
Scattered Clouds Scattered Clouds  
Wind Chill: 25°   Ceiling: Unl
Heat Index: 34°   Visibility: 10mi
Dew Point: 29°   Wind: 12mph
Humidity: 82%   Direction: 130°SE
Pressure: 29.91"   Gusts: NA
Location:  41.26°N, 95.85°W
Report Text: KOMA 281152Z 13010KT 10SM SCT180 01/M02 A2991 RMK AO2 SLP132 T00111017 10039 20011 56014
Loading
Personal Weather Stations






























Interactive Weather Map New forecast layout! Learn more

10-Day Weather Forecast

Advertisements
Track Severe Weather on mobile